sensor_id;sensor_type;location;lat;lon;timestamp;P1;durP1;ratioP1;P2;durP2;ratioP2
47605;SDS011;55448;51.330;4.946;2022-08-21T00:01:22;9.07;;;5.72;;
47605;SDS011;55448;51.330;4.946;2022-08-21T00:03:51;9.47;;;5.60;;
47605;SDS011;55448;51.330;4.946;2022-08-21T00:06:17;20.40;;;6.03;;
47605;SDS011;55448;51.330;4.946;2022-08-21T00:08:43;10.82;;;4.80;;
47605;SDS011;55448;51.330;4.946;2022-08-21T00:11:09;11.35;;;5.05;;
47605;SDS011;55448;51.330;4.946;2022-08-21T00:13:35;14.30;;;5.63;;
47605;SDS011;55448;51.330;4.946;2022-08-21T00:16:02;9.68;;;5.63;;
47605;SDS011;55448;51.330;4.946;2022-08-21T00:18:28;11.65;;;5.75;;
47605;SDS011;55448;51.330;4.946;2022-08-21T00:20:54;9.35;;;5.43;;
47605;SDS011;55448;51.330;4.946;2022-08-21T00:23:20;20.05;;;5.95;;
47605;SDS011;55448;51.330;4.946;2022-08-21T00:25:46;13.15;;;5.57;;
47605;SDS011;55448;51.330;4.946;2022-08-21T00:28:12;11.55;;;6.50;;
47605;SDS011;55448;51.330;4.946;2022-08-21T00:30:38;9.57;;;5.40;;
47605;SDS011;55448;51.330;4.946;2022-08-21T00:33:05;10.13;;;5.80;;
47605;SDS011;55448;51.330;4.946;2022-08-21T00:35:33;12.48;;;5.70;;
47605;SDS011;55448;51.330;4.946;2022-08-21T00:38:02;9.40;;;5.35;;
47605;SDS011;55448;51.330;4.946;2022-08-21T00:40:32;9.93;;;5.15;;
47605;SDS011;55448;51.330;4.946;2022-08-21T00:43:03;15.18;;;7.05;;
47605;SDS011;55448;51.330;4.946;2022-08-21T00:45:31;12.82;;;5.28;;
47605;SDS011;55448;51.330;4.946;2022-08-21T00:47:57;8.05;;;4.80;;
47605;SDS011;55448;51.330;4.946;2022-08-21T00:50:24;18.52;;;5.63;;
47605;SDS011;55448;51.330;4.946;2022-08-21T00:52:54;11.45;;;6.30;;
47605;SDS011;55448;51.330;4.946;2022-08-21T00:55:20;15.90;;;7.35;;
47605;SDS011;55448;51.330;4.946;2022-08-21T00:57:49;17.88;;;9.45;;
47605;SDS011;55448;51.330;4.946;2022-08-21T01:00:21;20.80;;;8.98;;
47605;SDS011;55448;51.330;4.946;2022-08-21T01:02:55;17.98;;;7.70;;
47605;SDS011;55448;51.330;4.946;2022-08-21T01:05:22;11.73;;;5.63;;
47605;SDS011;55448;51.330;4.946;2022-08-21T01:07:48;15.38;;;6.15;;
47605;SDS011;55448;51.330;4.946;2022-08-21T01:10:14;13.15;;;5.45;;
47605;SDS011;55448;51.330;4.946;2022-08-21T01:12:40;10.88;;;5.70;;
47605;SDS011;55448;51.330;4.946;2022-08-21T01:15:07;13.82;;;4.97;;
47605;SDS011;55448;51.330;4.946;2022-08-21T01:17:33;16.55;;;5.45;;
47605;SDS011;55448;51.330;4.946;2022-08-21T01:20:01;11.50;;;4.72;;
47605;SDS011;55448;51.330;4.946;2022-08-21T01:22:30;10.48;;;4.70;;
47605;SDS011;55448;51.330;4.946;2022-08-21T01:24:56;12.93;;;5.65;;
47605;SDS011;55448;51.330;4.946;2022-08-21T01:27:22;9.77;;;5.13;;
47605;SDS011;55448;51.330;4.946;2022-08-21T01:29:51;12.55;;;5.07;;
47605;SDS011;55448;51.330;4.946;2022-08-21T01:32:22;9.52;;;5.28;;
47605;SDS011;55448;51.330;4.946;2022-08-21T01:34:48;13.18;;;5.03;;
47605;SDS011;55448;51.330;4.946;2022-08-21T01:37:15;13.00;;;5.07;;
47605;SDS011;55448;51.330;4.946;2022-08-21T01:39:41;11.32;;;5.07;;
47605;SDS011;55448;51.330;4.946;2022-08-21T01:42:07;10.35;;;4.78;;
47605;SDS011;55448;51.330;4.946;2022-08-21T01:44:34;14.00;;;4.95;;
47605;SDS011;55448;51.330;4.946;2022-08-21T01:47:02;10.20;;;4.40;;
47605;SDS011;55448;51.330;4.946;2022-08-21T01:49:30;11.45;;;4.97;;
47605;SDS011;55448;51.330;4.946;2022-08-21T01:51:56;11.10;;;4.47;;
47605;SDS011;55448;51.330;4.946;2022-08-21T01:54:22;14.10;;;4.55;;
47605;SDS011;55448;51.330;4.946;2022-08-21T01:56:48;11.48;;;5.05;;
47605;SDS011;55448;51.330;4.946;2022-08-21T01:59:16;11.15;;;4.75;;
47605;SDS011;55448;51.330;4.946;2022-08-21T02:01:42;12.75;;;4.60;;
47605;SDS011;55448;51.330;4.946;2022-08-21T02:04:08;15.05;;;5.13;;
47605;SDS011;55448;51.330;4.946;2022-08-21T02:06:36;10.30;;;4.57;;
47605;SDS011;55448;51.330;4.946;2022-08-21T02:09:06;8.30;;;3.90;;
47605;SDS011;55448;51.330;4.946;2022-08-21T02:11:33;12.50;;;4.22;;
47605;SDS011;55448;51.330;4.946;2022-08-21T02:14:00;13.93;;;4.88;;
47605;SDS011;55448;51.330;4.946;2022-08-21T02:16:25;13.85;;;4.90;;
47605;SDS011;55448;51.330;4.946;2022-08-21T02:18:51;15.45;;;5.22;;
47605;SDS011;55448;51.330;4.946;2022-08-21T02:21:17;14.05;;;4.35;;
47605;SDS011;55448;51.330;4.946;2022-08-21T02:23:43;17.38;;;4.65;;
47605;SDS011;55448;51.330;4.946;2022-08-21T02:26:09;14.57;;;5.05;;
47605;SDS011;55448;51.330;4.946;2022-08-21T02:28:35;18.23;;;5.45;;
47605;SDS011;55448;51.330;4.946;2022-08-21T02:31:03;16.30;;;4.82;;
47605;SDS011;55448;51.330;4.946;2022-08-21T02:33:29;15.93;;;4.90;;
47605;SDS011;55448;51.330;4.946;2022-08-21T02:35:55;9.90;;;4.97;;
47605;SDS011;55448;51.330;4.946;2022-08-21T02:38:28;17.90;;;5.38;;
47605;SDS011;55448;51.330;4.946;2022-08-21T02:40:58;13.27;;;5.25;;
47605;SDS011;55448;51.330;4.946;2022-08-21T02:43:25;11.63;;;4.93;;
47605;SDS011;55448;51.330;4.946;2022-08-21T02:45:52;10.88;;;4.90;;
47605;SDS011;55448;51.330;4.946;2022-08-21T02:48:19;21.33;;;4.90;;
47605;SDS011;55448;51.330;4.946;2022-08-21T02:50:56;15.73;;;5.27;;
47605;SDS011;55448;51.330;4.946;2022-08-21T02:53:23;15.32;;;5.20;;
47605;SDS011;55448;51.330;4.946;2022-08-21T02:55:50;14.25;;;5.40;;
47605;SDS011;55448;51.330;4.946;2022-08-21T02:58:18;21.75;;;5.07;;
47605;SDS011;55448;51.330;4.946;2022-08-21T03:00:47;18.05;;;5.70;;
47605;SDS011;55448;51.330;4.946;2022-08-21T03:03:13;13.57;;;5.88;;
47605;SDS011;55448;51.330;4.946;2022-08-21T03:05:39;15.93;;;5.22;;
47605;SDS011;55448;51.330;4.946;2022-08-21T03:08:06;14.80;;;5.32;;
47605;SDS011;55448;51.330;4.946;2022-08-21T03:10:35;10.18;;;5.40;;
47605;SDS011;55448;51.330;4.946;2022-08-21T03:13:01;14.40;;;5.22;;
47605;SDS011;55448;51.330;4.946;2022-08-21T03:15:28;11.07;;;4.78;;
47605;SDS011;55448;51.330;4.946;2022-08-21T03:17:54;17.08;;;5.03;;
47605;SDS011;55448;51.330;4.946;2022-08-21T03:20:21;13.77;;;5.10;;
47605;SDS011;55448;51.330;4.946;2022-08-21T03:22:49;15.18;;;5.35;;
47605;SDS011;55448;51.330;4.946;2022-08-21T03:25:15;16.02;;;5.43;;
47605;SDS011;55448;51.330;4.946;2022-08-21T03:27:42;18.85;;;5.78;;
47605;SDS011;55448;51.330;4.946;2022-08-21T03:30:09;15.30;;;5.10;;
47605;SDS011;55448;51.330;4.946;2022-08-21T03:32:35;16.23;;;5.30;;
47605;SDS011;55448;51.330;4.946;2022-08-21T03:35:01;13.27;;;4.82;;
47605;SDS011;55448;51.330;4.946;2022-08-21T03:37:28;18.52;;;5.07;;
47605;SDS011;55448;51.330;4.946;2022-08-21T03:39:54;11.15;;;4.60;;
47605;SDS011;55448;51.330;4.946;2022-08-21T03:42:19;15.02;;;4.97;;
47605;SDS011;55448;51.330;4.946;2022-08-21T03:44:45;16.30;;;5.32;;
47605;SDS011;55448;51.330;4.946;2022-08-21T03:47:11;16.70;;;5.90;;
47605;SDS011;55448;51.330;4.946;2022-08-21T03:49:37;12.65;;;5.35;;
47605;SDS011;55448;51.330;4.946;2022-08-21T03:52:03;29.90;;;5.82;;
47605;SDS011;55448;51.330;4.946;2022-08-21T03:54:29;21.55;;;5.10;;
47605;SDS011;55448;51.330;4.946;2022-08-21T03:56:55;30.23;;;5.50;;
47605;SDS011;55448;51.330;4.946;2022-08-21T03:59:21;16.13;;;5.65;;
47605;SDS011;55448;51.330;4.946;2022-08-21T04:01:54;17.63;;;5.60;;
47605;SDS011;55448;51.330;4.946;2022-08-21T04:04:21;20.65;;;5.22;;
47605;SDS011;55448;51.330;4.946;2022-08-21T04:06:47;12.18;;;5.07;;
47605;SDS011;55448;51.330;4.946;2022-08-21T04:09:12;14.05;;;5.38;;
47605;SDS011;55448;51.330;4.946;2022-08-21T04:11:38;13.05;;;5.13;;
47605;SDS011;55448;51.330;4.946;2022-08-21T04:14:04;13.07;;;5.25;;
47605;SDS011;55448;51.330;4.946;2022-08-21T04:16:30;16.17;;;5.63;;
47605;SDS011;55448;51.330;4.946;2022-08-21T04:18:55;12.85;;;4.95;;
47605;SDS011;55448;51.330;4.946;2022-08-21T04:21:21;17.48;;;6.43;;
47605;SDS011;55448;51.330;4.946;2022-08-21T04:23:48;18.23;;;5.03;;
47605;SDS011;55448;51.330;4.946;2022-08-21T04:26:14;17.00;;;5.10;;
47605;SDS011;55448;51.330;4.946;2022-08-21T04:28:40;12.77;;;4.82;;
47605;SDS011;55448;51.330;4.946;2022-08-21T04:31:06;18.20;;;4.97;;
47605;SDS011;55448;51.330;4.946;2022-08-21T04:33:33;13.80;;;5.47;;
47605;SDS011;55448;51.330;4.946;2022-08-21T04:35:59;13.60;;;4.93;;
47605;SDS011;55448;51.330;4.946;2022-08-21T04:38:25;18.90;;;5.55;;
47605;SDS011;55448;51.330;4.946;2022-08-21T04:40:51;16.42;;;5.13;;
47605;SDS011;55448;51.330;4.946;2022-08-21T04:43:17;15.45;;;4.88;;
47605;SDS011;55448;51.330;4.946;2022-08-21T04:45:46;16.48;;;5.22;;
47605;SDS011;55448;51.330;4.946;2022-08-21T04:48:13;19.48;;;7.05;;
47605;SDS011;55448;51.330;4.946;2022-08-21T04:53:14;15.10;;;5.53;;
47605;SDS011;55448;51.330;4.946;2022-08-21T04:55:45;12.63;;;5.40;;
47605;SDS011;55448;51.330;4.946;2022-08-21T04:58:13;17.35;;;5.15;;
47605;SDS011;55448;51.330;4.946;2022-08-21T05:00:42;14.35;;;5.65;;
47605;SDS011;55448;51.330;4.946;2022-08-21T05:03:08;14.65;;;5.15;;
47605;SDS011;55448;51.330;4.946;2022-08-21T05:05:36;16.02;;;5.28;;
47605;SDS011;55448;51.330;4.946;2022-08-21T05:08:02;12.23;;;5.10;;
47605;SDS011;55448;51.330;4.946;2022-08-21T05:10:28;13.38;;;5.10;;
47605;SDS011;55448;51.330;4.946;2022-08-21T05:12:56;16.13;;;5.20;;
47605;SDS011;55448;51.330;4.946;2022-08-21T05:15:23;14.88;;;5.57;;
47605;SDS011;55448;51.330;4.946;2022-08-21T05:17:49;13.68;;;5.32;;
47605;SDS011;55448;51.330;4.946;2022-08-21T05:20:15;15.05;;;5.38;;
47605;SDS011;55448;51.330;4.946;2022-08-21T05:22:41;16.65;;;4.95;;
47605;SDS011;55448;51.330;4.946;2022-08-21T05:25:07;14.40;;;5.30;;
47605;SDS011;55448;51.330;4.946;2022-08-21T05:27:34;13.30;;;5.88;;
47605;SDS011;55448;51.330;4.946;2022-08-21T05:30:00;19.35;;;4.88;;
47605;SDS011;55448;51.330;4.946;2022-08-21T05:32:26;13.25;;;4.80;;
47605;SDS011;55448;51.330;4.946;2022-08-21T05:34:53;9.73;;;4.25;;
47605;SDS011;55448;51.330;4.946;2022-08-21T05:37:19;15.18;;;4.43;;
47605;SDS011;55448;51.330;4.946;2022-08-21T05:39:45;12.20;;;4.68;;
47605;SDS011;55448;51.330;4.946;2022-08-21T05:42:11;14.18;;;5.38;;
47605;SDS011;55448;51.330;4.946;2022-08-21T05:44:37;14.93;;;5.35;;
47605;SDS011;55448;51.330;4.946;2022-08-21T05:47:07;11.75;;;4.38;;
47605;SDS011;55448;51.330;4.946;2022-08-21T05:49:34;13.35;;;4.45;;
47605;SDS011;55448;51.330;4.946;2022-08-21T05:52:01;13.73;;;4.90;;
47605;SDS011;55448;51.330;4.946;2022-08-21T05:54:27;13.05;;;4.68;;
47605;SDS011;55448;51.330;4.946;2022-08-21T05:56:53;14.45;;;3.88;;
47605;SDS011;55448;51.330;4.946;2022-08-21T05:59:19;20.00;;;4.55;;
47605;SDS011;55448;51.330;4.946;2022-08-21T06:01:45;20.88;;;5.35;;
47605;SDS011;55448;51.330;4.946;2022-08-21T06:04:11;13.93;;;4.35;;
47605;SDS011;55448;51.330;4.946;2022-08-21T06:06:37;19.35;;;4.18;;
47605;SDS011;55448;51.330;4.946;2022-08-21T06:09:03;15.70;;;4.35;;
47605;SDS011;55448;51.330;4.946;2022-08-21T06:11:30;12.95;;;3.90;;
47605;SDS011;55448;51.330;4.946;2022-08-21T06:13:57;19.02;;;4.00;;
47605;SDS011;55448;51.330;4.946;2022-08-21T06:16:23;17.15;;;5.53;;
47605;SDS011;55448;51.330;4.946;2022-08-21T06:18:49;11.25;;;4.20;;
47605;SDS011;55448;51.330;4.946;2022-08-21T06:21:15;14.43;;;3.90;;
47605;SDS011;55448;51.330;4.946;2022-08-21T06:23:41;11.80;;;4.22;;
47605;SDS011;55448;51.330;4.946;2022-08-21T06:26:09;12.80;;;4.25;;
47605;SDS011;55448;51.330;4.946;2022-08-21T06:28:36;15.48;;;3.40;;
47605;SDS011;55448;51.330;4.946;2022-08-21T06:31:09;18.10;;;4.07;;
47605;SDS011;55448;51.330;4.946;2022-08-21T06:33:40;11.18;;;3.92;;
47605;SDS011;55448;51.330;4.946;2022-08-21T06:36:06;13.00;;;3.40;;
47605;SDS011;55448;51.330;4.946;2022-08-21T06:38:32;13.77;;;3.78;;
47605;SDS011;55448;51.330;4.946;2022-08-21T06:40:58;11.27;;;3.22;;
47605;SDS011;55448;51.330;4.946;2022-08-21T06:43:24;11.43;;;3.30;;
47605;SDS011;55448;51.330;4.946;2022-08-21T06:45:49;9.10;;;2.58;;
47605;SDS011;55448;51.330;4.946;2022-08-21T06:48:15;11.38;;;3.03;;
47605;SDS011;55448;51.330;4.946;2022-08-21T06:50:41;12.63;;;3.42;;
47605;SDS011;55448;51.330;4.946;2022-08-21T06:53:08;8.63;;;2.45;;
47605;SDS011;55448;51.330;4.946;2022-08-21T06:55:36;13.52;;;3.08;;
47605;SDS011;55448;51.330;4.946;2022-08-21T06:58:03;14.02;;;3.08;;
47605;SDS011;55448;51.330;4.946;2022-08-21T07:00:29;12.02;;;2.53;;
47605;SDS011;55448;51.330;4.946;2022-08-21T07:02:56;9.02;;;2.33;;
47605;SDS011;55448;51.330;4.946;2022-08-21T07:05:24;10.10;;;3.25;;
47605;SDS011;55448;51.330;4.946;2022-08-21T07:07:51;10.30;;;3.13;;
47605;SDS011;55448;51.330;4.946;2022-08-21T07:10:17;13.32;;;2.58;;
47605;SDS011;55448;51.330;4.946;2022-08-21T07:12:43;9.85;;;2.63;;
47605;SDS011;55448;51.330;4.946;2022-08-21T07:15:09;10.70;;;2.65;;
47605;SDS011;55448;51.330;4.946;2022-08-21T07:17:35;9.63;;;2.28;;
47605;SDS011;55448;51.330;4.946;2022-08-21T07:20:01;7.85;;;2.83;;
47605;SDS011;55448;51.330;4.946;2022-08-21T07:22:27;12.23;;;2.45;;
47605;SDS011;55448;51.330;4.946;2022-08-21T07:24:54;8.45;;;2.67;;
47605;SDS011;55448;51.330;4.946;2022-08-21T07:27:20;8.90;;;2.30;;
47605;SDS011;55448;51.330;4.946;2022-08-21T07:29:46;8.65;;;2.38;;
47605;SDS011;55448;51.330;4.946;2022-08-21T07:32:11;9.27;;;2.70;;
47605;SDS011;55448;51.330;4.946;2022-08-21T07:34:37;8.27;;;2.58;;
47605;SDS011;55448;51.330;4.946;2022-08-21T07:37:03;13.90;;;3.05;;
47605;SDS011;55448;51.330;4.946;2022-08-21T07:39:29;17.02;;;3.15;;
47605;SDS011;55448;51.330;4.946;2022-08-21T07:41:55;15.15;;;3.30;;
47605;SDS011;55448;51.330;4.946;2022-08-21T07:44:20;13.15;;;3.30;;
47605;SDS011;55448;51.330;4.946;2022-08-21T07:46:46;7.60;;;2.95;;
47605;SDS011;55448;51.330;4.946;2022-08-21T07:49:12;14.25;;;4.10;;
47605;SDS011;55448;51.330;4.946;2022-08-21T07:51:37;10.57;;;3.00;;
47605;SDS011;55448;51.330;4.946;2022-08-21T07:54:03;10.38;;;2.72;;
47605;SDS011;55448;51.330;4.946;2022-08-21T07:56:30;7.75;;;2.67;;
47605;SDS011;55448;51.330;4.946;2022-08-21T07:58:56;15.10;;;3.67;;
47605;SDS011;55448;51.330;4.946;2022-08-21T08:01:22;11.73;;;3.25;;
47605;SDS011;55448;51.330;4.946;2022-08-21T08:03:49;9.50;;;2.80;;
47605;SDS011;55448;51.330;4.946;2022-08-21T08:06:15;15.30;;;3.65;;
47605;SDS011;55448;51.330;4.946;2022-08-21T08:08:43;14.88;;;3.22;;
47605;SDS011;55448;51.330;4.946;2022-08-21T08:11:10;13.80;;;3.17;;
47605;SDS011;55448;51.330;4.946;2022-08-21T08:13:44;10.98;;;3.22;;
47605;SDS011;55448;51.330;4.946;2022-08-21T08:16:12;14.05;;;3.17;;
47605;SDS011;55448;51.330;4.946;2022-08-21T08:18:38;12.45;;;3.15;;
47605;SDS011;55448;51.330;4.946;2022-08-21T08:21:04;9.40;;;2.88;;
47605;SDS011;55448;51.330;4.946;2022-08-21T08:23:30;9.02;;;2.65;;
47605;SDS011;55448;51.330;4.946;2022-08-21T08:25:57;8.02;;;2.50;;
47605;SDS011;55448;51.330;4.946;2022-08-21T08:28:23;12.02;;;2.72;;
47605;SDS011;55448;51.330;4.946;2022-08-21T08:30:49;14.82;;;3.45;;
47605;SDS011;55448;51.330;4.946;2022-08-21T08:33:16;10.60;;;3.30;;
47605;SDS011;55448;51.330;4.946;2022-08-21T08:35:42;16.52;;;3.80;;
47605;SDS011;55448;51.330;4.946;2022-08-21T08:38:11;9.77;;;2.42;;
47605;SDS011;55448;51.330;4.946;2022-08-21T08:43:30;12.13;;;3.00;;
47605;SDS011;55448;51.330;4.946;2022-08-21T08:45:58;11.70;;;3.35;;
47605;SDS011;55448;51.330;4.946;2022-08-21T08:51:00;12.45;;;2.85;;
47605;SDS011;55448;51.330;4.946;2022-08-21T08:53:28;13.50;;;2.92;;
47605;SDS011;55448;51.330;4.946;2022-08-21T08:55:57;11.23;;;2.80;;
47605;SDS011;55448;51.330;4.946;2022-08-21T08:58:28;10.88;;;2.60;;
47605;SDS011;55448;51.330;4.946;2022-08-21T09:00:56;15.30;;;3.33;;
47605;SDS011;55448;51.330;4.946;2022-08-21T09:03:23;10.48;;;3.20;;
47605;SDS011;55448;51.330;4.946;2022-08-21T09:25:24;8.57;;;1.95;;
47605;SDS011;55448;51.330;4.946;2022-08-21T09:27:52;8.07;;;2.70;;
47605;SDS011;55448;51.330;4.946;2022-08-21T09:30:19;6.88;;;2.28;;
47605;SDS011;55448;51.330;4.946;2022-08-21T09:32:51;8.18;;;2.80;;
47605;SDS011;55448;51.330;4.946;2022-08-21T09:35:18;9.20;;;2.10;;
47605;SDS011;55448;51.330;4.946;2022-08-21T09:37:48;13.60;;;2.70;;
47605;SDS011;55448;51.330;4.946;2022-08-21T09:40:23;11.88;;;2.92;;
47605;SDS011;55448;51.330;4.946;2022-08-21T09:43:00;9.68;;;2.78;;
47605;SDS011;55448;51.330;4.946;2022-08-21T09:45:26;10.05;;;2.63;;
47605;SDS011;55448;51.330;4.946;2022-08-21T09:47:52;9.93;;;3.08;;
47605;SDS011;55448;51.330;4.946;2022-08-21T09:50:23;10.05;;;2.30;;
47605;SDS011;55448;51.330;4.946;2022-08-21T09:52:53;12.00;;;2.67;;
47605;SDS011;55448;51.330;4.946;2022-08-21T09:55:32;10.30;;;2.30;;
47605;SDS011;55448;51.330;4.946;2022-08-21T09:58:21;9.93;;;2.63;;
47605;SDS011;55448;51.330;4.946;2022-08-21T10:00:57;12.02;;;2.83;;
47605;SDS011;55448;51.330;4.946;2022-08-21T10:03:25;11.05;;;2.28;;
47605;SDS011;55448;51.330;4.946;2022-08-21T10:05:58;7.05;;;2.38;;
47605;SDS011;55448;51.330;4.946;2022-08-21T10:08:27;10.65;;;2.25;;
47605;SDS011;55448;51.330;4.946;2022-08-21T10:11:01;11.43;;;2.58;;
47605;SDS011;55448;51.330;4.946;2022-08-21T10:19:22;10.38;;;2.38;;
47605;SDS011;55448;51.330;4.946;2022-08-21T10:24:48;7.28;;;2.50;;
47605;SDS011;55448;51.330;4.946;2022-08-21T10:36:03;12.00;;;2.47;;
47605;SDS011;55448;51.330;4.946;2022-08-21T10:39:01;7.35;;;2.20;;
47605;SDS011;55448;51.330;4.946;2022-08-21T10:44:12;9.30;;;2.55;;
47605;SDS011;55448;51.330;4.946;2022-08-21T10:47:08;8.38;;;2.60;;
47605;SDS011;55448;51.330;4.946;2022-08-21T10:52:35;7.28;;;1.98;;
47605;SDS011;55448;51.330;4.946;2022-08-21T10:55:29;8.05;;;2.60;;
47605;SDS011;55448;51.330;4.946;2022-08-21T10:58:09;7.68;;;1.92;;
47605;SDS011;55448;51.330;4.946;2022-08-21T11:01:11;4.93;;;1.75;;
47605;SDS011;55448;51.330;4.946;2022-08-21T11:03:42;6.03;;;2.30;;
47605;SDS011;55448;51.330;4.946;2022-08-21T11:13:50;6.22;;;1.80;;
47605;SDS011;55448;51.330;4.946;2022-08-21T11:16:25;9.18;;;2.33;;
47605;SDS011;55448;51.330;4.946;2022-08-21T11:25:17;8.27;;;2.13;;
47605;SDS011;55448;51.330;4.946;2022-08-21T11:28:06;5.13;;;1.63;;
47605;SDS011;55448;51.330;4.946;2022-08-21T11:31:07;6.28;;;2.00;;
47605;SDS011;55448;51.330;4.946;2022-08-21T11:36:30;5.95;;;1.90;;
47605;SDS011;55448;51.330;4.946;2022-08-21T11:41:40;7.82;;;2.20;;
47605;SDS011;55448;51.330;4.946;2022-08-21T11:44:23;6.85;;;1.90;;
47605;SDS011;55448;51.330;4.946;2022-08-21T11:52:35;7.38;;;1.88;;
47605;SDS011;55448;51.330;4.946;2022-08-21T11:55:16;5.50;;;1.85;;
47605;SDS011;55448;51.330;4.946;2022-08-21T12:02:58;6.50;;;2.15;;
47605;SDS011;55448;51.330;4.946;2022-08-21T12:05:36;6.78;;;2.20;;
47605;SDS011;55448;51.330;4.946;2022-08-21T12:08:07;6.68;;;2.03;;
47605;SDS011;55448;51.330;4.946;2022-08-21T12:10:45;5.38;;;2.15;;
47605;SDS011;55448;51.330;4.946;2022-08-21T12:13:26;9.63;;;2.30;;
47605;SDS011;55448;51.330;4.946;2022-08-21T12:16:04;6.32;;;2.35;;
47605;SDS011;55448;51.330;4.946;2022-08-21T12:18:32;5.80;;;2.17;;
47605;SDS011;55448;51.330;4.946;2022-08-21T12:21:03;6.55;;;2.20;;
47605;SDS011;55448;51.330;4.946;2022-08-21T12:23:30;8.02;;;2.20;;
47605;SDS011;55448;51.330;4.946;2022-08-21T12:26:22;7.97;;;2.20;;
47605;SDS011;55448;51.330;4.946;2022-08-21T12:28:50;11.82;;;2.33;;
47605;SDS011;55448;51.330;4.946;2022-08-21T12:31:27;7.63;;;2.33;;
47605;SDS011;55448;51.330;4.946;2022-08-21T12:33:55;9.65;;;2.45;;
47605;SDS011;55448;51.330;4.946;2022-08-21T12:36:26;10.83;;;2.60;;
47605;SDS011;55448;51.330;4.946;2022-08-21T12:39:11;7.28;;;2.08;;
47605;SDS011;55448;51.330;4.946;2022-08-21T12:41:49;7.72;;;2.25;;
47605;SDS011;55448;51.330;4.946;2022-08-21T12:44:23;7.45;;;1.85;;
47605;SDS011;55448;51.330;4.946;2022-08-21T12:47:17;9.32;;;2.40;;
47605;SDS011;55448;51.330;4.946;2022-08-21T12:50:15;9.02;;;2.53;;
47605;SDS011;55448;51.330;4.946;2022-08-21T12:52:44;6.85;;;2.28;;
47605;SDS011;55448;51.330;4.946;2022-08-21T12:55:24;8.52;;;2.40;;
47605;SDS011;55448;51.330;4.946;2022-08-21T12:57:55;8.35;;;2.38;;
47605;SDS011;55448;51.330;4.946;2022-08-21T13:00:22;7.70;;;2.42;;
47605;SDS011;55448;51.330;4.946;2022-08-21T13:02:49;6.45;;;1.75;;
47605;SDS011;55448;51.330;4.946;2022-08-21T13:05:30;6.15;;;2.03;;
47605;SDS011;55448;51.330;4.946;2022-08-21T13:07:59;6.40;;;2.10;;
47605;SDS011;55448;51.330;4.946;2022-08-21T13:10:30;6.88;;;2.30;;
47605;SDS011;55448;51.330;4.946;2022-08-21T13:12:59;7.20;;;1.90;;
47605;SDS011;55448;51.330;4.946;2022-08-21T13:17:55;6.28;;;1.98;;
47605;SDS011;55448;51.330;4.946;2022-08-21T13:20:48;6.22;;;1.83;;
47605;SDS011;55448;51.330;4.946;2022-08-21T13:23:29;8.77;;;2.35;;
47605;SDS011;55448;51.330;4.946;2022-08-21T13:25:55;7.20;;;2.00;;
47605;SDS011;55448;51.330;4.946;2022-08-21T13:28:21;5.80;;;1.80;;
47605;SDS011;55448;51.330;4.946;2022-08-21T13:30:49;8.50;;;2.13;;
47605;SDS011;55448;51.330;4.946;2022-08-21T13:33:17;8.40;;;2.50;;
47605;SDS011;55448;51.330;4.946;2022-08-21T13:36:03;10.98;;;2.53;;
47605;SDS011;55448;51.330;4.946;2022-08-21T13:38:35;8.93;;;2.50;;
47605;SDS011;55448;51.330;4.946;2022-08-21T13:41:21;8.98;;;2.20;;
47605;SDS011;55448;51.330;4.946;2022-08-21T13:44:13;11.75;;;2.05;;
47605;SDS011;55448;51.330;4.946;2022-08-21T13:46:47;5.18;;;2.03;;
47605;SDS011;55448;51.330;4.946;2022-08-21T13:49:16;7.40;;;2.00;;
47605;SDS011;55448;51.330;4.946;2022-08-21T13:51:44;7.55;;;2.55;;
47605;SDS011;55448;51.330;4.946;2022-08-21T13:57:17;7.22;;;2.10;;
47605;SDS011;55448;51.330;4.946;2022-08-21T13:59:45;9.57;;;2.28;;
47605;SDS011;55448;51.330;4.946;2022-08-21T14:02:18;6.50;;;2.30;;
47605;SDS011;55448;51.330;4.946;2022-08-21T14:07:36;5.38;;;1.52;;
47605;SDS011;55448;51.330;4.946;2022-08-21T14:10:05;6.07;;;1.88;;
47605;SDS011;55448;51.330;4.946;2022-08-21T14:12:38;7.25;;;1.98;;
47605;SDS011;55448;51.330;4.946;2022-08-21T14:15:08;4.50;;;1.80;;
47605;SDS011;55448;51.330;4.946;2022-08-21T14:17:38;4.73;;;1.73;;
47605;SDS011;55448;51.330;4.946;2022-08-21T14:20:08;4.63;;;2.15;;
47605;SDS011;55448;51.330;4.946;2022-08-21T14:27:36;7.03;;;1.92;;
47605;SDS011;55448;51.330;4.946;2022-08-21T14:30:16;7.00;;;2.13;;
47605;SDS011;55448;51.330;4.946;2022-08-21T14:32:45;7.70;;;2.00;;
47605;SDS011;55448;51.330;4.946;2022-08-21T14:35:11;7.45;;;1.83;;
47605;SDS011;55448;51.330;4.946;2022-08-21T14:37:40;5.93;;;2.22;;
47605;SDS011;55448;51.330;4.946;2022-08-21T14:40:07;7.00;;;2.10;;
47605;SDS011;55448;51.330;4.946;2022-08-21T14:42:33;10.95;;;2.33;;
47605;SDS011;55448;51.330;4.946;2022-08-21T14:45:01;7.30;;;2.13;;
47605;SDS011;55448;51.330;4.946;2022-08-21T14:47:33;6.57;;;2.28;;
47605;SDS011;55448;51.330;4.946;2022-08-21T14:49:59;7.28;;;2.35;;
47605;SDS011;55448;51.330;4.946;2022-08-21T14:52:24;5.80;;;1.90;;
47605;SDS011;55448;51.330;4.946;2022-08-21T14:54:50;7.03;;;2.00;;
47605;SDS011;55448;51.330;4.946;2022-08-21T14:57:16;7.07;;;2.08;;
47605;SDS011;55448;51.330;4.946;2022-08-21T14:59:41;9.90;;;2.13;;
47605;SDS011;55448;51.330;4.946;2022-08-21T15:02:08;6.97;;;2.33;;
47605;SDS011;55448;51.330;4.946;2022-08-21T15:04:34;8.18;;;2.40;;
47605;SDS011;55448;51.330;4.946;2022-08-21T15:07:00;10.52;;;2.45;;
47605;SDS011;55448;51.330;4.946;2022-08-21T15:09:28;8.60;;;2.13;;
47605;SDS011;55448;51.330;4.946;2022-08-21T15:11:55;6.13;;;2.10;;
47605;SDS011;55448;51.330;4.946;2022-08-21T15:14:26;7.20;;;2.07;;
47605;SDS011;55448;51.330;4.946;2022-08-21T15:16:54;6.22;;;2.25;;
47605;SDS011;55448;51.330;4.946;2022-08-21T15:19:20;6.00;;;2.35;;
47605;SDS011;55448;51.330;4.946;2022-08-21T15:21:46;5.72;;;1.80;;
47605;SDS011;55448;51.330;4.946;2022-08-21T15:24:12;10.23;;;2.60;;
47605;SDS011;55448;51.330;4.946;2022-08-21T15:26:37;7.47;;;2.13;;
47605;SDS011;55448;51.330;4.946;2022-08-21T15:29:04;10.23;;;2.50;;
47605;SDS011;55448;51.330;4.946;2022-08-21T15:31:31;8.82;;;2.65;;
47605;SDS011;55448;51.330;4.946;2022-08-21T15:33:57;6.60;;;2.50;;
47605;SDS011;55448;51.330;4.946;2022-08-21T15:36:23;5.53;;;2.22;;
47605;SDS011;55448;51.330;4.946;2022-08-21T15:38:49;7.32;;;2.50;;
47605;SDS011;55448;51.330;4.946;2022-08-21T15:41:14;8.07;;;2.28;;
47605;SDS011;55448;51.330;4.946;2022-08-21T15:43:42;8.52;;;2.30;;
47605;SDS011;55448;51.330;4.946;2022-08-21T15:46:12;11.10;;;2.40;;
47605;SDS011;55448;51.330;4.946;2022-08-21T15:48:39;6.80;;;2.20;;
47605;SDS011;55448;51.330;4.946;2022-08-21T15:51:05;7.30;;;2.03;;
47605;SDS011;55448;51.330;4.946;2022-08-21T15:53:31;11.73;;;2.20;;
47605;SDS011;55448;51.330;4.946;2022-08-21T15:56:00;4.95;;;2.17;;
47605;SDS011;55448;51.330;4.946;2022-08-21T15:58:27;10.82;;;2.72;;
47605;SDS011;55448;51.330;4.946;2022-08-21T16:00:53;8.75;;;2.35;;
47605;SDS011;55448;51.330;4.946;2022-08-21T16:03:19;7.80;;;2.40;;
47605;SDS011;55448;51.330;4.946;2022-08-21T16:05:47;9.95;;;2.30;;
47605;SDS011;55448;51.330;4.946;2022-08-21T16:08:15;10.18;;;2.38;;
47605;SDS011;55448;51.330;4.946;2022-08-21T16:10:40;14.60;;;2.45;;
47605;SDS011;55448;51.330;4.946;2022-08-21T16:13:09;9.82;;;2.50;;
47605;SDS011;55448;51.330;4.946;2022-08-21T16:15:43;6.30;;;1.80;;
47605;SDS011;55448;51.330;4.946;2022-08-21T16:18:09;10.73;;;2.28;;
47605;SDS011;55448;51.330;4.946;2022-08-21T16:20:35;7.45;;;2.33;;
47605;SDS011;55448;51.330;4.946;2022-08-21T16:23:01;12.20;;;2.63;;
47605;SDS011;55448;51.330;4.946;2022-08-21T16:25:27;7.72;;;2.78;;